createdAt,value
2023-04-29T00:03:37.387Z,26.17
2023-04-29T00:04:38.496Z,26.17
2023-04-29T00:05:38.152Z,26.22
2023-04-29T00:06:38.059Z,26.22
2023-04-29T00:07:38.057Z,26.23
2023-04-29T00:08:38.023Z,26.23
2023-04-29T00:09:38.026Z,26.25
2023-04-29T00:10:38.000Z,26.26
2023-04-29T00:11:37.986Z,26.27
2023-04-29T00:12:37.963Z,26.29
2023-04-29T00:13:37.947Z,26.29
2023-04-29T00:14:37.942Z,26.32
2023-04-29T00:15:37.922Z,26.33
2023-04-29T00:16:38.071Z,26.33
2023-04-29T00:17:37.948Z,26.36
2023-04-29T00:18:37.897Z,26.37
2023-04-29T00:19:37.879Z,26.37
2023-04-29T00:20:37.857Z,26.39
2023-04-29T00:21:38.300Z,26.40
2023-04-29T00:22:37.812Z,26.42
2023-04-29T00:23:37.847Z,26.42
2023-04-29T00:24:37.884Z,26.44
2023-04-29T00:25:37.883Z,26.44
2023-04-29T00:26:37.908Z,26.47
2023-04-29T00:27:37.925Z,26.48
2023-04-29T00:28:37.970Z,26.47
2023-04-29T00:29:37.966Z,26.48
2023-04-29T00:30:38.101Z,26.51
2023-04-29T00:31:38.283Z,26.50
2023-04-29T00:32:38.089Z,26.51
2023-04-29T00:33:38.041Z,26.51
2023-04-29T00:34:38.069Z,26.51
2023-04-29T00:35:38.120Z,26.53
2023-04-29T00:36:38.093Z,26.53
2023-04-29T00:37:38.112Z,26.56
2023-04-29T00:38:38.130Z,26.56
2023-04-29T00:39:38.153Z,26.57
2023-04-29T00:40:38.172Z,26.57
2023-04-29T00:41:38.194Z,26.58
2023-04-29T00:42:38.207Z,26.58
2023-04-29T00:43:38.239Z,26.58
2023-04-29T00:44:38.239Z,26.57
2023-04-29T00:45:38.250Z,26.58
2023-04-29T00:46:38.375Z,26.60
2023-04-29T00:47:38.302Z,26.60
2023-04-29T00:48:38.316Z,26.60
2023-04-29T00:49:38.325Z,26.58
2023-04-29T00:50:38.353Z,26.60
2023-04-29T00:51:38.385Z,26.61
2023-04-29T00:52:38.371Z,26.63
2023-04-29T00:53:38.393Z,26.63
2023-04-29T00:54:38.411Z,26.61
2023-04-29T00:55:38.424Z,26.61
2023-04-29T00:56:38.453Z,26.60
2023-04-29T00:57:38.460Z,26.64
2023-04-29T00:58:38.480Z,26.61
2023-04-29T00:59:38.500Z,26.65
2023-04-29T01:00:38.536Z,26.65
2023-04-29T01:01:38.585Z,26.67
2023-04-29T01:02:38.654Z,26.63
2023-04-29T01:03:38.774Z,26.63
2023-04-29T01:04:38.591Z,26.65
2023-04-29T01:05:38.570Z,26.65
2023-04-29T01:06:38.634Z,26.64
2023-04-29T01:07:38.627Z,26.64
2023-04-29T01:08:38.613Z,26.65
2023-04-29T01:09:38.626Z,26.67
2023-04-29T01:10:38.636Z,26.68
2023-04-29T01:11:38.649Z,26.67
2023-04-29T01:12:38.674Z,26.68
2023-04-29T01:13:38.665Z,26.67
2023-04-29T01:14:38.682Z,26.68
2023-04-29T01:15:38.711Z,26.68
2023-04-29T01:16:38.814Z,26.68
2023-04-29T01:17:38.775Z,26.68
2023-04-29T01:18:38.728Z,26.67
2023-04-29T01:19:38.744Z,26.71
2023-04-29T01:20:38.758Z,26.67
2023-04-29T01:21:38.767Z,26.71
2023-04-29T01:22:38.787Z,26.68
2023-04-29T01:23:38.820Z,26.67
2023-04-29T01:24:38.812Z,26.68
2023-04-29T01:25:38.837Z,26.68
2023-04-29T01:26:38.830Z,26.68
2023-04-29T01:27:38.843Z,26.71
2023-04-29T01:28:38.852Z,26.71
2023-04-29T01:29:38.867Z,26.70
2023-04-29T01:30:38.888Z,26.71
2023-04-29T01:31:38.925Z,26.70
2023-04-29T01:32:38.913Z,26.71
2023-04-29T01:33:38.908Z,26.71
2023-04-29T01:34:38.925Z,26.70
2023-04-29T01:35:38.939Z,26.68
2023-04-29T01:36:38.952Z,26.68
2023-04-29T01:37:38.965Z,26.73
2023-04-29T01:38:38.990Z,26.73
2023-04-29T01:39:39.015Z,26.71
2023-04-29T01:40:39.003Z,26.71
2023-04-29T01:41:39.007Z,26.71
2023-04-29T01:42:39.028Z,26.71
2023-04-29T01:43:39.054Z,26.74
2023-04-29T01:44:39.059Z,26.73
2023-04-29T01:45:39.090Z,26.73
2023-04-29T01:46:39.120Z,26.74
2023-04-29T01:47:39.258Z,26.70
2023-04-29T01:48:39.123Z,26.74
2023-04-29T01:49:39.137Z,26.73
2023-04-29T01:50:39.169Z,26.75
2023-04-29T01:51:39.180Z,26.73
2023-04-29T01:52:39.191Z,26.73
2023-04-29T01:53:39.243Z,26.74
2023-04-29T01:54:39.206Z,26.74
2023-04-29T01:55:39.255Z,26.74
2023-04-29T01:56:39.235Z,26.75
2023-04-29T01:57:39.245Z,26.74
2023-04-29T01:58:39.291Z,26.73
2023-04-29T01:59:39.277Z,26.75
2023-04-29T02:00:39.323Z,26.75
2023-04-29T02:01:39.330Z,26.73
2023-04-29T02:02:39.500Z,26.77
2023-04-29T02:03:39.486Z,26.75
2023-04-29T02:04:39.369Z,26.74
2023-04-29T02:05:39.354Z,26.74
2023-04-29T02:06:39.361Z,26.73
2023-04-29T02:07:39.369Z,26.74
2023-04-29T02:08:39.377Z,26.77
2023-04-29T02:09:39.396Z,26.75
2023-04-29T02:10:39.450Z,26.75
2023-04-29T02:11:39.444Z,26.75
2023-04-29T02:12:39.445Z,26.77
2023-04-29T02:13:39.446Z,26.75
2023-04-29T02:14:39.464Z,26.77
2023-04-29T02:15:39.460Z,26.75
2023-04-29T02:16:39.526Z,26.75
2023-04-29T02:17:39.535Z,26.74
2023-04-29T02:18:39.502Z,26.73
2023-04-29T02:19:39.508Z,26.73
2023-04-29T02:20:39.531Z,26.74
2023-04-29T02:21:39.511Z,26.77
2023-04-29T02:22:39.513Z,26.77
2023-04-29T02:23:39.543Z,26.75
2023-04-29T02:24:39.556Z,26.77
2023-04-29T02:25:39.534Z,26.75
2023-04-29T02:26:39.557Z,26.77
2023-04-29T02:27:39.590Z,26.75
2023-04-29T02:28:39.561Z,26.74
2023-04-29T02:29:39.598Z,26.75
2023-04-29T02:30:39.581Z,26.78
2023-04-29T02:31:39.646Z,26.75
2023-04-29T02:32:39.638Z,26.77
2023-04-29T02:33:39.614Z,26.74
2023-04-29T02:34:39.622Z,26.77
2023-04-29T02:35:39.619Z,26.80
2023-04-29T02:36:39.625Z,26.77
2023-04-29T02:37:39.633Z,26.77
2023-04-29T02:38:39.646Z,26.77
2023-04-29T02:39:39.654Z,26.75
2023-04-29T02:40:39.682Z,26.75
2023-04-29T02:41:39.691Z,26.74
2023-04-29T02:42:39.699Z,26.75
2023-04-29T02:43:39.725Z,26.77
2023-04-29T02:44:39.750Z,26.78
2023-04-29T02:45:39.856Z,26.80
2023-04-29T02:46:39.740Z,26.78
2023-04-29T02:47:39.822Z,26.78
2023-04-29T02:48:39.758Z,26.78
2023-04-29T02:49:39.772Z,26.77
2023-04-29T02:50:39.781Z,26.78
2023-04-29T02:51:39.796Z,26.78
2023-04-29T02:52:39.796Z,26.75
2023-04-29T02:53:39.807Z,26.78
2023-04-29T02:54:39.835Z,26.80
2023-04-29T02:55:39.833Z,26.78
2023-04-29T02:56:39.853Z,26.80
2023-04-29T02:57:39.848Z,26.81
2023-04-29T02:58:39.857Z,26.78
2023-04-29T02:59:39.968Z,26.81
2023-04-29T03:00:39.892Z,26.80
2023-04-29T03:01:40.154Z,26.78
2023-04-29T03:02:39.992Z,26.80
2023-04-29T03:03:40.036Z,26.81
2023-04-29T03:04:39.909Z,26.78
2023-04-29T03:05:39.912Z,26.78
2023-04-29T03:06:39.919Z,26.77
2023-04-29T03:07:39.923Z,26.78
2023-04-29T03:08:39.941Z,26.80
2023-04-29T03:09:39.952Z,26.81
2023-04-29T03:10:41.565Z,26.78
2023-04-29T03:11:39.981Z,26.81
2023-04-29T03:12:39.929Z,26.82
2023-04-29T03:13:39.913Z,26.80
2023-04-29T03:14:39.889Z,26.81
2023-04-29T03:15:39.896Z,26.82
2023-04-29T03:16:39.951Z,26.80
2023-04-29T03:17:39.878Z,26.80
2023-04-29T03:18:39.818Z,26.77
2023-04-29T03:19:39.803Z,26.81
2023-04-29T03:20:39.777Z,26.80
2023-04-29T03:21:39.763Z,26.81
2023-04-29T03:22:39.745Z,26.80
2023-04-29T03:23:39.730Z,26.77
2023-04-29T03:24:39.690Z,26.78
2023-04-29T03:25:39.695Z,26.77
2023-04-29T03:26:39.657Z,26.78
2023-04-29T03:27:39.628Z,26.78
2023-04-29T03:28:39.607Z,26.80
2023-04-29T03:29:39.595Z,26.80
2023-04-29T03:30:39.599Z,26.80
2023-04-29T03:31:39.715Z,26.80
2023-04-29T03:32:39.551Z,26.78
2023-04-29T03:33:39.517Z,26.81
2023-04-29T03:34:39.496Z,26.81
2023-04-29T03:35:39.493Z,26.81
2023-04-29T03:36:39.513Z,26.80
2023-04-29T03:37:39.455Z,26.81
2023-04-29T03:38:39.415Z,26.78
2023-04-29T03:39:39.405Z,26.78
2023-04-29T03:40:39.390Z,26.80
2023-04-29T03:41:39.362Z,26.80
2023-04-29T03:42:39.372Z,26.80
2023-04-29T03:43:39.339Z,26.78
2023-04-29T03:44:39.315Z,26.81
2023-04-29T03:45:39.301Z,26.78
2023-04-29T03:46:39.308Z,26.80
2023-04-29T03:47:39.364Z,26.77
2023-04-29T03:48:39.232Z,26.78
2023-04-29T03:49:39.208Z,26.80
2023-04-29T03:50:39.190Z,26.80
2023-04-29T03:51:39.170Z,26.80
2023-04-29T03:52:39.145Z,26.81
2023-04-29T03:53:39.136Z,26.78
2023-04-29T03:54:39.106Z,26.78
2023-04-29T03:55:39.080Z,26.78
2023-04-29T03:56:39.050Z,26.78
2023-04-29T03:57:41.589Z,26.78
2023-04-29T03:58:39.020Z,26.82
2023-04-29T03:59:39.003Z,26.82
2023-04-29T04:00:38.990Z,26.81
2023-04-29T04:01:38.988Z,26.80
2023-04-29T04:02:39.157Z,26.81
2023-04-29T04:03:39.065Z,26.80
2023-04-29T04:04:39.107Z,26.80
2023-04-29T04:05:38.880Z,26.81
2023-04-29T04:06:38.871Z,26.80
2023-04-29T04:07:38.842Z,26.81
2023-04-29T04:08:38.840Z,26.81
2023-04-29T04:09:38.823Z,26.82
2023-04-29T04:10:38.792Z,26.84
2023-04-29T04:11:38.767Z,26.84
2023-04-29T04:12:38.741Z,26.82
2023-04-29T04:13:38.726Z,26.82
2023-04-29T04:14:38.704Z,26.82
2023-04-29T04:15:38.687Z,26.82
2023-04-29T04:16:38.772Z,26.81
2023-04-29T04:17:38.669Z,26.82
2023-04-29T04:18:38.624Z,26.82
2023-04-29T04:19:38.619Z,26.84
2023-04-29T04:20:38.586Z,26.81
2023-04-29T04:21:38.620Z,26.82
2023-04-29T04:22:38.539Z,26.82
2023-04-29T04:23:38.552Z,26.81
2023-04-29T04:24:38.544Z,26.82
2023-04-29T04:25:38.484Z,26.81
2023-04-29T04:26:38.454Z,26.81
2023-04-29T04:27:38.435Z,26.81
2023-04-29T04:28:38.414Z,26.82
2023-04-29T04:29:38.378Z,26.80
2023-04-29T04:30:38.364Z,26.80
2023-04-29T04:31:38.410Z,26.81
2023-04-29T04:32:38.379Z,26.81
2023-04-29T04:33:38.292Z,26.80
2023-04-29T04:34:38.263Z,26.80
2023-04-29T04:35:38.385Z,26.81
2023-04-29T04:36:38.261Z,26.82
2023-04-29T04:37:38.278Z,26.81
2023-04-29T04:38:38.320Z,26.82
2023-04-29T04:39:38.289Z,26.82
2023-04-29T04:40:38.306Z,26.82
2023-04-29T04:41:38.308Z,26.82
2023-04-29T04:42:38.326Z,26.84
2023-04-29T04:43:38.367Z,26.81
2023-04-29T04:44:38.337Z,26.82
2023-04-29T04:45:38.372Z,26.81
2023-04-29T04:46:38.342Z,26.82
2023-04-29T04:47:38.394Z,26.81
2023-04-29T04:48:38.369Z,26.81
2023-04-29T04:49:38.380Z,26.81
2023-04-29T04:50:38.386Z,26.82
2023-04-29T04:51:38.406Z,26.85
2023-04-29T04:52:38.400Z,26.82
2023-04-29T04:53:38.409Z,26.84
2023-04-29T04:54:38.448Z,26.82
2023-04-29T04:55:38.400Z,26.84
2023-04-29T04:56:38.398Z,26.82
2023-04-29T04:57:38.437Z,26.84
2023-04-29T04:58:38.404Z,26.84
2023-04-29T04:59:38.455Z,26.84
2023-04-29T05:00:38.413Z,26.82
2023-04-29T05:01:38.542Z,26.84
2023-04-29T05:02:38.568Z,26.84
2023-04-29T05:03:38.775Z,26.85
2023-04-29T05:04:38.472Z,26.85
2023-04-29T05:05:38.436Z,26.85
2023-04-29T05:06:38.451Z,26.87
2023-04-29T05:07:38.487Z,26.87
2023-04-29T05:08:38.465Z,26.85
2023-04-29T05:09:38.510Z,26.85
2023-04-29T05:10:38.478Z,26.87
2023-04-29T05:11:38.480Z,26.82
2023-04-29T05:12:38.533Z,26.84
2023-04-29T05:13:38.482Z,26.84
2023-04-29T05:14:38.548Z,26.87
2023-04-29T05:15:38.497Z,26.85
2023-04-29T05:16:38.557Z,26.87
2023-04-29T05:17:38.539Z,26.87
2023-04-29T05:18:38.503Z,26.87
2023-04-29T05:19:38.519Z,26.87
2023-04-29T05:20:38.554Z,26.85
2023-04-29T05:21:38.548Z,26.84
2023-04-29T05:22:38.565Z,26.85
2023-04-29T05:23:38.639Z,26.85
2023-04-29T05:24:38.553Z,26.84
2023-04-29T05:25:38.565Z,26.85
2023-04-29T05:26:38.573Z,26.84
2023-04-29T05:27:38.574Z,26.87
2023-04-29T05:28:38.591Z,26.85
2023-04-29T05:29:38.586Z,26.88
2023-04-29T05:30:38.611Z,26.87
2023-04-29T05:31:38.609Z,26.90
2023-04-29T05:32:38.640Z,26.87
2023-04-29T05:33:38.609Z,26.88
2023-04-29T05:34:38.610Z,26.88
2023-04-29T05:35:38.653Z,26.87
2023-04-29T05:36:38.611Z,26.87
2023-04-29T05:37:38.638Z,26.90
2023-04-29T05:38:38.628Z,26.87
2023-04-29T05:39:38.656Z,26.88
2023-04-29T05:40:38.650Z,26.88
2023-04-29T05:41:38.647Z,26.87
2023-04-29T05:42:38.652Z,26.88
2023-04-29T05:43:38.670Z,26.88
2023-04-29T05:44:38.644Z,26.85
2023-04-29T05:45:38.655Z,26.85
2023-04-29T05:46:38.737Z,26.87
2023-04-29T05:47:38.705Z,26.85
2023-04-29T05:48:38.682Z,26.88
2023-04-29T05:49:38.677Z,26.88
2023-04-29T05:50:38.693Z,26.88
2023-04-29T05:51:38.690Z,26.88
2023-04-29T05:52:38.700Z,26.88
2023-04-29T05:53:38.689Z,26.90
2023-04-29T05:54:38.686Z,26.90
2023-04-29T05:55:38.722Z,26.87
2023-04-29T05:56:38.688Z,26.90
2023-04-29T05:57:38.702Z,26.90
2023-04-29T05:58:38.694Z,26.91
2023-04-29T05:59:38.685Z,26.91
2023-04-29T06:00:38.697Z,26.91
2023-04-29T06:01:38.694Z,26.91
2023-04-29T06:02:44.350Z,26.94
2023-04-29T06:03:39.002Z,26.91
2023-04-29T06:04:38.970Z,26.92
2023-04-29T06:05:39.270Z,26.91
2023-04-29T06:06:38.629Z,26.94
2023-04-29T06:07:38.606Z,26.94
2023-04-29T06:08:38.590Z,26.97
2023-04-29T06:09:38.563Z,26.98
2023-04-29T06:10:38.548Z,26.98
2023-04-29T06:11:38.688Z,26.98
2023-04-29T06:12:38.511Z,26.99
2023-04-29T06:13:38.505Z,26.95
2023-04-29T06:14:38.459Z,26.95
2023-04-29T06:15:38.448Z,26.98
2023-04-29T06:16:38.481Z,26.97
2023-04-29T06:17:38.447Z,26.98
2023-04-29T06:18:38.395Z,26.94
2023-04-29T06:19:38.357Z,26.97
2023-04-29T06:20:38.321Z,26.95
2023-04-29T06:21:38.303Z,26.94
2023-04-29T06:22:38.274Z,26.92
2023-04-29T06:23:38.250Z,26.94
2023-04-29T06:24:38.222Z,26.95
2023-04-29T06:25:38.188Z,26.92
2023-04-29T06:26:38.168Z,26.95
2023-04-29T06:27:38.166Z,26.94
2023-04-29T06:28:38.123Z,26.94
2023-04-29T06:29:38.095Z,26.94
2023-04-29T06:30:38.074Z,26.95
2023-04-29T06:31:38.064Z,26.94
2023-04-29T06:32:38.089Z,26.94
2023-04-29T06:33:37.994Z,26.95
2023-04-29T06:34:37.963Z,26.97
2023-04-29T06:35:37.935Z,26.95
2023-04-29T06:36:37.929Z,26.95
2023-04-29T06:37:38.271Z,26.95
2023-04-29T06:38:37.927Z,26.95
2023-04-29T06:39:37.918Z,26.92
2023-04-29T06:40:37.921Z,26.94
2023-04-29T06:41:37.969Z,26.92
2023-04-29T06:42:37.936Z,26.91
2023-04-29T06:43:37.952Z,26.91
2023-04-29T06:44:37.909Z,26.94
2023-04-29T06:45:37.967Z,26.92
2023-04-29T06:46:37.965Z,26.91
2023-04-29T06:47:38.033Z,26.92
2023-04-29T06:48:37.913Z,26.91
2023-04-29T06:49:37.904Z,26.92
2023-04-29T06:50:37.907Z,26.97
2023-04-29T06:51:37.889Z,26.95
2023-04-29T06:52:37.892Z,26.97
2023-04-29T06:53:37.878Z,26.99
2023-04-29T06:54:37.862Z,26.98
2023-04-29T06:55:37.882Z,26.98
2023-04-29T06:56:37.851Z,26.97
2023-04-29T06:57:37.846Z,26.97
2023-04-29T06:58:37.843Z,26.97
2023-04-29T06:59:37.852Z,26.99
2023-04-29T07:00:37.829Z,26.97
2023-04-29T07:01:37.991Z,26.97
2023-04-29T07:02:37.911Z,26.97
2023-04-29T07:03:38.070Z,26.95
2023-04-29T07:04:37.855Z,26.98
2023-04-29T07:05:37.817Z,27.01
2023-04-29T07:06:37.802Z,27.01
2023-04-29T07:07:37.811Z,27.01
2023-04-29T07:08:37.790Z,27.03
2023-04-29T07:09:37.792Z,27.01
2023-04-29T07:10:37.779Z,27.05
2023-04-29T07:11:37.816Z,27.05
2023-04-29T07:12:37.756Z,27.05
2023-04-29T07:13:37.751Z,27.08
2023-04-29T07:14:37.749Z,27.06
2023-04-29T07:15:37.756Z,27.09
2023-04-29T07:16:37.784Z,27.11
2023-04-29T07:17:37.751Z,27.08
2023-04-29T07:18:37.846Z,27.05
2023-04-29T07:19:37.687Z,27.08
2023-04-29T07:20:37.690Z,27.05
2023-04-29T07:21:37.662Z,27.08
2023-04-29T07:22:37.652Z,27.11
2023-04-29T07:23:37.636Z,27.08
2023-04-29T07:24:37.635Z,27.09
2023-04-29T07:25:37.620Z,27.08
2023-04-29T07:26:37.603Z,27.12
2023-04-29T07:27:37.592Z,27.08
2023-04-29T07:28:37.585Z,27.11
2023-04-29T07:29:37.570Z,27.09
2023-04-29T07:30:37.571Z,27.08
2023-04-29T07:31:38.474Z,27.09
2023-04-29T07:32:37.550Z,27.08
2023-04-29T07:33:37.497Z,27.08
2023-04-29T07:34:37.522Z,27.06
2023-04-29T07:35:37.465Z,27.08
2023-04-29T07:36:37.437Z,27.09
2023-04-29T07:37:37.434Z,27.11
2023-04-29T07:38:37.415Z,27.11
2023-04-29T07:39:37.404Z,27.13
2023-04-29T07:40:37.449Z,27.11
2023-04-29T07:41:37.378Z,27.11
2023-04-29T07:42:37.367Z,27.13
2023-04-29T07:43:37.344Z,27.12
2023-04-29T07:44:37.339Z,27.11
2023-04-29T07:45:37.330Z,27.12
2023-04-29T07:46:37.342Z,27.08
2023-04-29T07:47:37.337Z,27.11
2023-04-29T07:48:37.259Z,27.12
2023-04-29T07:49:37.242Z,27.12
2023-04-29T07:50:37.286Z,27.12
2023-04-29T07:51:37.225Z,27.13
2023-04-29T07:52:37.201Z,27.12
2023-04-29T07:53:37.171Z,27.12
2023-04-29T07:54:37.161Z,27.12
2023-04-29T07:55:37.178Z,27.15
2023-04-29T07:56:37.107Z,27.15
2023-04-29T07:57:37.107Z,27.12
2023-04-29T07:58:37.070Z,27.15
2023-04-29T07:59:37.055Z,27.15
2023-04-29T08:00:37.022Z,27.11
2023-04-29T08:01:37.001Z,27.13
2023-04-29T08:02:37.069Z,27.15
2023-04-29T08:03:39.844Z,27.15
2023-04-29T08:04:37.126Z,27.16
2023-04-29T08:05:37.080Z,27.13
2023-04-29T08:06:36.873Z,27.15
2023-04-29T08:07:36.845Z,27.16
2023-04-29T08:08:36.829Z,27.15
2023-04-29T08:09:36.782Z,27.16
2023-04-29T08:10:36.758Z,27.15
2023-04-29T08:11:36.886Z,27.15
2023-04-29T08:12:36.722Z,27.15
2023-04-29T08:13:36.714Z,27.15
2023-04-29T08:14:36.743Z,27.15
2023-04-29T08:15:36.715Z,27.15
2023-04-29T08:16:36.734Z,27.13
2023-04-29T08:17:36.754Z,27.15
2023-04-29T08:18:36.722Z,27.15
2023-04-29T08:19:36.764Z,27.15
2023-04-29T08:20:36.720Z,27.13
2023-04-29T08:21:36.717Z,27.13
2023-04-29T08:22:36.723Z,27.12
2023-04-29T08:23:36.728Z,27.13
2023-04-29T08:24:36.724Z,27.13
2023-04-29T08:25:36.748Z,27.16
2023-04-29T08:26:36.744Z,27.18
2023-04-29T08:27:36.739Z,27.18
2023-04-29T08:28:36.687Z,27.16
2023-04-29T08:29:36.290Z,27.18
2023-04-29T08:30:36.280Z,27.16
2023-04-29T08:31:36.333Z,27.18
2023-04-29T08:32:36.254Z,27.16
2023-04-29T08:33:36.229Z,27.15
2023-04-29T08:34:36.231Z,27.18
2023-04-29T08:35:36.218Z,27.15
2023-04-29T08:36:36.192Z,27.15
2023-04-29T08:37:36.285Z,27.15
2023-04-29T08:38:36.138Z,27.13
2023-04-29T08:39:36.118Z,27.11
2023-04-29T08:40:36.112Z,27.11
2023-04-29T08:41:36.100Z,27.09
2023-04-29T08:42:36.068Z,27.08
2023-04-29T08:43:36.056Z,27.11
2023-04-29T08:44:36.077Z,27.09
2023-04-29T08:45:36.093Z,27.06
2023-04-29T08:46:36.039Z,27.06
2023-04-29T08:47:36.045Z,27.06
2023-04-29T08:48:36.097Z,27.06
2023-04-29T08:49:35.963Z,27.06
2023-04-29T08:50:35.960Z,27.05
2023-04-29T08:51:35.969Z,27.06
2023-04-29T08:52:35.923Z,27.05
2023-04-29T08:53:35.897Z,27.05
2023-04-29T08:54:35.886Z,27.05
2023-04-29T08:55:35.870Z,27.11
2023-04-29T08:56:35.849Z,27.12
2023-04-29T08:57:35.831Z,27.11
2023-04-29T08:58:35.811Z,27.13
2023-04-29T08:59:35.793Z,27.13
2023-04-29T09:00:35.771Z,27.13
2023-04-29T09:01:35.854Z,27.15
2023-04-29T09:02:35.805Z,27.15
2023-04-29T09:03:36.143Z,27.15
2023-04-29T09:04:35.784Z,27.16
2023-04-29T09:05:35.754Z,27.16
2023-04-29T09:06:35.749Z,27.15
2023-04-29T09:07:35.800Z,27.16
2023-04-29T09:08:35.754Z,27.16
2023-04-29T09:09:35.748Z,27.18
2023-04-29T09:10:35.745Z,27.18
2023-04-29T09:11:35.749Z,27.18
2023-04-29T09:12:35.753Z,27.18
2023-04-29T09:13:35.761Z,27.18
2023-04-29T09:14:35.749Z,27.21
2023-04-29T09:15:35.754Z,27.19
2023-04-29T09:16:35.768Z,27.19
2023-04-29T09:17:35.821Z,27.19
2023-04-29T09:18:35.765Z,27.18
2023-04-29T09:19:35.761Z,27.16
2023-04-29T09:20:35.778Z,27.13
2023-04-29T09:21:35.753Z,27.18
2023-04-29T09:22:35.761Z,27.16
2023-04-29T09:23:35.810Z,27.15
2023-04-29T09:24:35.756Z,27.16
2023-04-29T09:25:35.774Z,27.18
2023-04-29T09:26:35.759Z,27.19
2023-04-29T09:27:35.776Z,27.21
2023-04-29T09:28:35.720Z,27.19
2023-04-29T09:29:35.335Z,27.16
2023-04-29T09:30:35.325Z,27.16
2023-04-29T09:31:35.420Z,27.13
2023-04-29T09:32:37.659Z,27.13
2023-04-29T09:33:35.275Z,27.15
2023-04-29T09:34:35.244Z,27.13
2023-04-29T09:35:35.211Z,27.13
2023-04-29T09:36:35.185Z,27.13
2023-04-29T09:37:35.158Z,27.15
2023-04-29T09:38:35.117Z,27.13
2023-04-29T09:39:35.114Z,27.12
2023-04-29T09:40:43.516Z,27.13
2023-04-29T09:41:35.026Z,27.13
2023-04-29T09:42:34.994Z,27.12
2023-04-29T09:43:34.964Z,27.12
2023-04-29T09:44:34.949Z,27.12
2023-04-29T09:45:34.911Z,27.13
2023-04-29T09:46:35.020Z,27.15
2023-04-29T09:47:34.910Z,27.16
2023-04-29T09:48:34.831Z,27.15
2023-04-29T09:49:34.805Z,27.15
2023-04-29T09:50:34.772Z,27.18
2023-04-29T09:51:34.747Z,27.16
2023-04-29T09:52:34.719Z,27.21
2023-04-29T09:53:34.698Z,27.21
2023-04-29T09:54:34.666Z,27.22
2023-04-29T09:55:34.656Z,27.21
2023-04-29T09:56:34.611Z,27.21
2023-04-29T09:57:34.581Z,27.21
2023-04-29T09:58:34.558Z,27.21
2023-04-29T09:59:34.530Z,27.21
2023-04-29T10:00:34.497Z,27.19
2023-04-29T10:01:34.513Z,27.18
2023-04-29T10:02:34.482Z,27.19
2023-04-29T10:03:34.484Z,27.18
2023-04-29T10:04:34.405Z,27.19
2023-04-29T10:05:34.344Z,27.18
2023-04-29T10:06:34.315Z,27.16
2023-04-29T10:07:34.286Z,27.18
2023-04-29T10:08:34.254Z,27.13
2023-04-29T10:09:34.226Z,27.13
2023-04-29T10:10:34.199Z,27.16
2023-04-29T10:11:34.190Z,27.15
2023-04-29T10:12:34.137Z,27.12
2023-04-29T10:13:34.108Z,27.11
2023-04-29T10:14:34.078Z,27.12
2023-04-29T10:15:34.118Z,27.12
2023-04-29T10:16:34.199Z,27.11
2023-04-29T10:17:33.990Z,27.12
2023-04-29T10:18:33.979Z,27.11
2023-04-29T10:19:33.938Z,27.12
2023-04-29T10:20:33.917Z,27.12
2023-04-29T10:21:33.893Z,27.12
2023-04-29T10:22:33.855Z,27.09
2023-04-29T10:23:33.827Z,27.11
2023-04-29T10:24:33.837Z,27.11
2023-04-29T10:25:33.779Z,27.09
2023-04-29T10:26:33.742Z,27.09
2023-04-29T10:27:33.741Z,27.11
2023-04-29T10:28:33.688Z,27.08
2023-04-29T10:29:33.672Z,27.09
2023-04-29T10:30:33.658Z,27.08
2023-04-29T10:31:33.636Z,27.11
2023-04-29T10:32:43.444Z,27.08
2023-04-29T10:33:33.646Z,27.08
2023-04-29T10:34:33.537Z,27.09
2023-04-29T10:35:33.517Z,27.09
2023-04-29T10:36:33.499Z,27.11
2023-04-29T10:37:33.471Z,27.12
2023-04-29T10:38:33.431Z,27.13
2023-04-29T10:39:33.411Z,27.15
2023-04-29T10:40:33.387Z,27.13
2023-04-29T10:41:33.365Z,27.15
2023-04-29T10:42:34.032Z,27.15
2023-04-29T10:43:33.449Z,27.18
2023-04-29T10:44:33.282Z,27.16
2023-04-29T10:45:33.255Z,27.18
2023-04-29T10:46:33.312Z,27.16
2023-04-29T10:47:33.222Z,27.13
2023-04-29T10:48:33.165Z,27.15
2023-04-29T10:49:33.138Z,27.13
2023-04-29T10:50:33.106Z,27.16
2023-04-29T10:51:33.264Z,27.16
2023-04-29T10:52:33.045Z,27.18
2023-04-29T10:53:33.024Z,27.15
2023-04-29T10:54:32.982Z,27.16
2023-04-29T10:55:32.968Z,27.13
2023-04-29T10:56:32.938Z,27.15
2023-04-29T10:57:32.896Z,27.15
2023-04-29T10:58:32.872Z,27.13
2023-04-29T10:59:32.869Z,27.13
2023-04-29T11:00:32.831Z,27.13
2023-04-29T11:01:32.909Z,27.12
2023-04-29T11:02:32.825Z,27.12
2023-04-29T11:03:32.849Z,27.12
2023-04-29T11:04:32.737Z,27.09
2023-04-29T11:05:32.693Z,27.15
2023-04-29T11:06:32.667Z,27.11
2023-04-29T11:07:32.654Z,27.11
2023-04-29T11:08:32.623Z,27.11
2023-04-29T11:09:32.597Z,27.11
2023-04-29T11:10:32.648Z,27.12
2023-04-29T11:11:32.567Z,27.13
2023-04-29T11:12:32.530Z,27.13
2023-04-29T11:13:32.498Z,27.15
2023-04-29T11:14:32.462Z,27.13
2023-04-29T11:15:32.455Z,27.18
2023-04-29T11:16:32.533Z,27.16
2023-04-29T11:17:32.403Z,27.18
2023-04-29T11:18:32.342Z,27.18
2023-04-29T11:19:32.337Z,27.16
2023-04-29T11:20:32.282Z,27.16
2023-04-29T11:21:32.307Z,27.15
2023-04-29T11:22:32.251Z,27.13
2023-04-29T11:23:32.208Z,27.15
2023-04-29T11:24:32.169Z,27.15
2023-04-29T11:25:32.158Z,27.15
2023-04-29T11:26:32.157Z,27.15
2023-04-29T11:27:32.092Z,27.15
2023-04-29T11:28:32.088Z,27.15
2023-04-29T11:29:32.035Z,27.11
2023-04-29T11:30:32.026Z,27.13
2023-04-29T11:31:32.059Z,27.15
2023-04-29T11:32:32.056Z,27.15
2023-04-29T11:33:31.995Z,27.13
2023-04-29T11:34:31.938Z,27.13
2023-04-29T11:35:31.912Z,27.13
2023-04-29T11:36:31.887Z,27.13
2023-04-29T11:37:31.878Z,27.15
2023-04-29T11:38:31.856Z,27.12
2023-04-29T11:39:31.859Z,27.13
2023-04-29T11:40:31.837Z,27.12
2023-04-29T11:41:31.833Z,27.12
2023-04-29T11:42:31.820Z,27.11
2023-04-29T11:43:31.825Z,27.12
2023-04-29T11:44:31.797Z,27.11
2023-04-29T11:45:31.781Z,27.12
2023-04-29T11:46:31.910Z,27.09
2023-04-29T11:47:31.871Z,27.12
2023-04-29T11:48:31.761Z,27.09
2023-04-29T11:49:31.743Z,27.11
2023-04-29T11:50:31.748Z,27.12
2023-04-29T11:51:31.743Z,27.11
2023-04-29T11:52:31.744Z,27.12
2023-04-29T11:53:31.752Z,27.13
2023-04-29T11:54:31.752Z,27.13
2023-04-29T11:55:31.759Z,27.15
2023-04-29T11:56:31.764Z,27.16
2023-04-29T11:57:31.772Z,27.18
2023-04-29T11:58:31.794Z,27.18
2023-04-29T11:59:31.793Z,27.19
2023-04-29T12:00:31.829Z,27.19
2023-04-29T12:01:31.847Z,27.21
2023-04-29T12:02:32.064Z,27.21
2023-04-29T12:03:32.072Z,27.19
2023-04-29T12:04:32.129Z,27.21
2023-04-29T12:05:32.037Z,27.22
2023-04-29T12:06:31.998Z,27.22
2023-04-29T12:07:32.043Z,27.22
2023-04-29T12:08:32.063Z,27.22
2023-04-29T12:09:32.041Z,27.24
2023-04-29T12:10:32.057Z,27.22
2023-04-29T12:11:32.062Z,27.22
2023-04-29T12:12:32.075Z,27.21
2023-04-29T12:13:32.099Z,27.19
2023-04-29T12:14:32.142Z,27.18
2023-04-29T12:15:32.177Z,27.22
2023-04-29T12:16:32.255Z,27.21
2023-04-29T12:17:32.342Z,27.19
2023-04-29T12:18:32.321Z,27.22
2023-04-29T12:19:32.445Z,27.19
2023-04-29T12:20:32.395Z,27.21
2023-04-29T12:21:32.426Z,27.21
2023-04-29T12:22:32.469Z,27.18
2023-04-29T12:23:32.503Z,27.18
2023-04-29T12:24:32.534Z,27.16
2023-04-29T12:25:32.540Z,27.19
2023-04-29T12:26:32.573Z,27.16
2023-04-29T12:27:32.607Z,27.16
2023-04-29T12:28:32.622Z,27.19
2023-04-29T12:29:32.641Z,27.18
2023-04-29T12:30:32.646Z,27.16
2023-04-29T12:31:32.715Z,27.18
2023-04-29T12:32:32.714Z,27.18
2023-04-29T12:33:32.650Z,27.16
2023-04-29T12:34:32.659Z,27.21
2023-04-29T12:35:32.679Z,27.18
2023-04-29T12:36:32.661Z,27.19
2023-04-29T12:37:32.697Z,27.19
2023-04-29T12:38:32.682Z,27.19
2023-04-29T12:39:32.681Z,27.21
2023-04-29T12:40:32.696Z,27.21
2023-04-29T12:41:32.737Z,27.19
2023-04-29T12:42:32.687Z,27.22
2023-04-29T12:43:32.692Z,27.22
2023-04-29T12:44:32.719Z,27.24
2023-04-29T12:45:32.697Z,27.24
2023-04-29T12:46:32.689Z,27.24
2023-04-29T12:47:32.688Z,27.28
2023-04-29T12:48:33.395Z,27.25
2023-04-29T12:49:32.706Z,27.26
2023-04-29T12:50:32.710Z,27.25
2023-04-29T12:51:32.759Z,27.28
2023-04-29T12:52:33.687Z,27.28
2023-04-29T12:53:32.748Z,27.28
2023-04-29T12:54:32.718Z,27.26
2023-04-29T12:55:32.702Z,27.26